createdAt,value
2019-06-10T00:01:57.436Z,3.30
2019-06-10T00:04:24.343Z,3.70
2019-06-10T00:06:51.918Z,3.60
2019-06-10T00:09:21.062Z,3.30
2019-06-10T00:11:47.879Z,3.87
2019-06-10T00:14:15.475Z,5.00
2019-06-10T00:16:43.088Z,4.30
2019-06-10T00:19:12.719Z,4.13
2019-06-10T00:21:41.237Z,4.20
2019-06-10T00:24:07.386Z,4.40
2019-06-10T00:26:34.202Z,4.20
2019-06-10T00:29:03.135Z,4.90
2019-06-10T00:31:31.249Z,4.37
2019-06-10T00:33:57.007Z,3.33
2019-06-10T00:36:24.588Z,4.40
2019-06-10T00:38:52.194Z,3.80
2019-06-10T00:41:21.882Z,3.53
2019-06-10T00:43:47.359Z,3.90
2019-06-10T00:46:14.958Z,3.80
2019-06-10T00:48:43.297Z,4.10
2019-06-10T00:51:12.941Z,4.07
2019-06-10T00:53:38.484Z,3.83
2019-06-10T00:56:07.285Z,4.30
2019-06-10T00:58:33.955Z,4.30
2019-06-10T01:01:02.645Z,3.67
2019-06-10T01:03:31.368Z,4.12
2019-06-10T01:05:57.507Z,4.17
2019-06-10T01:08:25.090Z,3.70
2019-06-10T01:10:52.669Z,4.07
2019-06-10T01:13:20.842Z,3.93
2019-06-10T01:15:50.959Z,4.13
2019-06-10T01:18:31.946Z,4.30
2019-06-10T01:20:44.092Z,5.63
2019-06-10T01:23:13.528Z,7.00
2019-06-10T01:25:41.883Z,8.10
2019-06-10T01:28:07.628Z,7.70
2019-06-10T01:30:34.480Z,6.83
2019-06-10T01:33:02.062Z,7.20
2019-06-10T01:35:30.606Z,8.07
2019-06-10T01:37:57.273Z,8.50
2019-06-10T01:40:24.848Z,6.67
2019-06-10T01:42:52.470Z,6.10
2019-06-10T01:45:21.234Z,6.78
2019-06-10T01:47:47.639Z,5.60
2019-06-10T01:50:17.205Z,5.10
2019-06-10T01:52:42.872Z,5.27
2019-06-10T01:55:13.523Z,6.20
2019-06-10T01:57:41.127Z,5.20
2019-06-10T02:00:10.959Z,4.27
2019-06-10T02:02:35.296Z,4.60
2019-06-10T02:05:02.415Z,5.47
2019-06-10T02:07:31.996Z,4.57
2019-06-10T02:10:01.206Z,4.83
2019-06-10T02:12:26.818Z,3.80
2019-06-10T02:14:54.403Z,4.37
2019-06-10T02:17:23.866Z,4.30
2019-06-10T02:19:50.935Z,4.27
2019-06-10T02:22:18.533Z,4.10
2019-06-10T02:24:45.560Z,4.20
2019-06-10T02:27:14.468Z,4.00
2019-06-10T02:29:41.484Z,4.00
2019-06-10T02:32:12.379Z,4.90
2019-06-10T02:34:42.922Z,4.23
2019-06-10T02:37:04.944Z,4.03
2019-06-10T02:39:35.003Z,4.30
2019-06-10T02:42:00.218Z,4.40
2019-06-10T02:44:33.123Z,4.23
2019-06-10T02:46:55.397Z,4.00
2019-06-10T02:49:42.785Z,4.40
2019-06-10T02:51:53.583Z,4.40
2019-06-10T02:54:20.815Z,4.00
2019-06-10T02:56:46.396Z,4.60
2019-06-10T02:59:15.917Z,4.37
2019-06-10T03:01:44.004Z,4.40
2019-06-10T03:04:09.486Z,4.07
2019-06-10T03:06:40.162Z,4.20
2019-06-10T03:09:05.105Z,5.23
2019-06-10T03:11:36.922Z,5.27
2019-06-10T03:14:02.482Z,5.90
2019-06-10T03:16:28.121Z,5.23
2019-06-10T03:18:55.458Z,4.87
2019-06-10T03:21:24.636Z,5.10
2019-06-10T03:23:52.985Z,4.90
2019-06-10T03:26:19.236Z,4.97
2019-06-10T03:28:45.853Z,5.43
2019-06-10T03:31:15.529Z,4.50
2019-06-10T03:33:46.783Z,4.60
2019-06-10T03:36:09.033Z,5.13
2019-06-10T03:38:37.158Z,5.00
2019-06-10T03:41:04.951Z,4.90
2019-06-10T03:43:33.070Z,4.83
2019-06-10T03:46:02.700Z,5.27
2019-06-10T03:48:28.433Z,5.40
2019-06-10T03:50:55.317Z,4.87
2019-06-10T03:53:24.356Z,5.00
2019-06-10T03:55:52.656Z,5.17
2019-06-10T03:58:19.947Z,5.27
2019-06-10T04:00:46.432Z,4.90
2019-06-10T04:03:14.029Z,5.50
2019-06-10T04:05:42.423Z,5.10
2019-06-10T04:08:09.581Z,5.03
2019-06-10T04:10:37.926Z,5.60
2019-06-10T04:13:05.541Z,5.57
2019-06-10T04:15:33.123Z,5.17
2019-06-10T04:18:03.648Z,4.93
2019-06-10T04:20:29.505Z,5.47
2019-06-10T04:22:56.654Z,4.63
2019-06-10T04:25:26.668Z,5.30
2019-06-10T04:27:52.561Z,5.87
2019-06-10T04:30:20.175Z,4.67
2019-06-10T04:32:47.664Z,4.90
2019-06-10T04:35:16.032Z,4.57
2019-06-10T04:37:44.371Z,4.90
2019-06-10T04:40:13.384Z,5.33
2019-06-10T04:42:39.559Z,5.20
2019-06-10T04:45:07.141Z,5.23
2019-06-10T04:47:35.217Z,4.90
2019-06-10T04:50:03.299Z,5.00
2019-06-10T04:52:32.917Z,5.30
2019-06-10T04:54:58.363Z,5.23
2019-06-10T04:57:28.042Z,5.03
2019-06-10T04:59:54.296Z,4.97
2019-06-10T05:02:25.015Z,5.07
2019-06-10T05:04:49.524Z,5.57
2019-06-10T05:07:18.923Z,4.97
2019-06-10T05:09:45.471Z,5.93
2019-06-10T05:12:13.821Z,5.30
2019-06-10T05:14:43.248Z,5.07
2019-06-10T05:17:09.019Z,5.23
2019-06-10T05:19:36.589Z,5.23
2019-06-10T05:22:04.294Z,5.40
2019-06-10T05:24:34.312Z,5.40
2019-06-10T05:27:02.121Z,4.87
2019-06-10T05:29:28.385Z,4.70
2019-06-10T05:31:55.413Z,4.67
2019-06-10T05:34:26.454Z,4.80
2019-06-10T05:36:52.565Z,5.20
2019-06-10T05:39:18.177Z,4.70
2019-06-10T05:41:45.751Z,5.30
2019-06-10T05:44:13.626Z,5.43
2019-06-10T05:46:43.295Z,5.07
2019-06-10T05:49:08.548Z,4.93
2019-06-10T05:51:36.129Z,5.23
2019-06-10T05:54:03.711Z,4.80
2019-06-10T05:56:33.808Z,5.13
2019-06-10T05:59:01.643Z,4.03
2019-06-10T06:01:27.501Z,5.40
2019-06-10T06:03:54.516Z,5.22
2019-06-10T06:06:22.939Z,4.70
2019-06-10T06:08:49.877Z,4.63
2019-06-10T06:11:17.632Z,4.37
2019-06-10T06:13:45.243Z,4.27
2019-06-10T06:16:12.909Z,3.80
2019-06-10T06:18:42.285Z,3.83
2019-06-10T06:21:22.506Z,3.83
2019-06-10T06:23:37.077Z,3.77
2019-06-10T06:26:04.163Z,4.03
2019-06-10T06:28:33.979Z,3.87
2019-06-10T06:31:03.136Z,3.20
2019-06-10T06:33:29.463Z,3.07
2019-06-10T06:35:56.413Z,3.47
2019-06-10T06:38:24.198Z,3.20
2019-06-10T06:40:53.749Z,3.50
2019-06-10T06:43:22.094Z,4.25
2019-06-10T06:45:47.858Z,3.53
2019-06-10T06:48:15.536Z,3.47
2019-06-10T06:51:00.410Z,3.53
2019-06-10T06:53:21.221Z,3.30
2019-06-10T06:55:39.781Z,3.07
2019-06-10T06:58:06.696Z,3.13
2019-06-10T07:00:49.552Z,3.30
2019-06-10T07:03:03.133Z,3.50
2019-06-10T07:05:32.686Z,3.43
2019-06-10T07:07:58.551Z,3.33
2019-06-10T07:10:26.140Z,3.10
2019-06-10T07:12:53.752Z,3.17
2019-06-10T07:15:22.477Z,3.10
2019-06-10T07:17:49.316Z,3.30
2019-06-10T07:20:16.887Z,3.03
2019-06-10T07:22:46.576Z,2.73
2019-06-10T07:25:12.487Z,2.60
2019-06-10T07:27:42.899Z,2.60
2019-06-10T07:30:11.850Z,3.07
2019-06-10T07:32:37.351Z,3.03
2019-06-10T07:35:02.905Z,2.90
2019-06-10T07:37:32.390Z,2.97
2019-06-10T07:39:57.671Z,2.53
2019-06-10T07:42:25.250Z,3.20
2019-06-10T07:44:53.405Z,3.00
2019-06-10T07:47:22.941Z,2.87
2019-06-10T07:49:48.027Z,3.50
2019-06-10T07:52:19.644Z,3.13
2019-06-10T07:54:45.222Z,3.20
2019-06-10T07:57:12.898Z,2.87
2019-06-10T07:59:44.521Z,2.60
2019-06-10T08:02:08.789Z,2.50
2019-06-10T08:04:36.844Z,2.83
2019-06-10T08:07:04.000Z,2.80
2019-06-10T08:09:33.478Z,2.73
2019-06-10T08:12:05.446Z,2.60
2019-06-10T08:14:29.844Z,2.93
2019-06-10T08:16:57.422Z,2.67
2019-06-10T08:19:34.304Z,2.60
2019-06-10T08:21:54.875Z,2.90
2019-06-10T08:24:22.727Z,2.90
2019-06-10T08:26:50.384Z,3.03
2019-06-10T08:29:17.962Z,2.93
2019-06-10T08:31:48.443Z,2.60
2019-06-10T08:34:14.392Z,3.00
2019-06-10T08:36:46.333Z,2.37
2019-06-10T08:39:15.150Z,3.40
2019-06-10T08:41:38.466Z,3.10
2019-06-10T08:44:05.899Z,2.80
2019-06-10T08:46:33.600Z,2.80
2019-06-10T08:49:03.199Z,2.70
2019-06-10T08:51:29.155Z,3.17
2019-06-10T08:53:56.776Z,2.50
2019-06-10T08:56:24.360Z,3.10
2019-06-10T08:58:54.056Z,3.03
2019-06-10T09:01:22.346Z,3.30
2019-06-10T09:03:50.449Z,3.23
2019-06-10T09:06:16.349Z,3.40
2019-06-10T09:08:46.338Z,3.80
2019-06-10T09:11:12.923Z,3.62
2019-06-10T09:13:40.698Z,3.10
2019-06-10T09:16:15.596Z,3.40
2019-06-10T09:18:34.794Z,3.23
2019-06-10T09:21:02.464Z,4.32
2019-06-10T09:23:29.825Z,5.27
2019-06-10T09:25:57.955Z,4.30
2019-06-10T09:28:25.067Z,5.77
2019-06-10T09:30:58.597Z,4.33
2019-06-10T09:33:22.570Z,3.60
2019-06-10T09:35:50.945Z,3.27
2019-06-10T09:38:16.743Z,3.40
2019-06-10T09:40:48.423Z,3.30
2019-06-10T09:43:12.943Z,3.40
2019-06-10T09:45:41.856Z,2.90
2019-06-10T09:48:09.112Z,3.30
2019-06-10T09:50:47.048Z,2.70
2019-06-10T09:53:09.865Z,3.33
2019-06-10T09:55:37.449Z,3.07
2019-06-10T09:58:05.201Z,2.70
2019-06-10T10:00:48.802Z,3.20
2019-06-10T10:03:12.637Z,3.23
2019-06-10T10:05:51.909Z,2.73
2019-06-10T10:08:07.840Z,2.60
2019-06-10T10:10:35.442Z,2.83
2019-06-10T10:13:03.378Z,3.20
2019-06-10T10:15:34.433Z,2.80
2019-06-10T10:17:59.322Z,2.67
2019-06-10T10:20:26.941Z,2.93
2019-06-10T10:22:55.532Z,3.07
2019-06-10T10:25:23.566Z,2.53
2019-06-10T10:27:53.358Z,2.53
2019-06-10T10:30:17.557Z,2.50
2019-06-10T10:32:48.931Z,2.63
2019-06-10T10:35:13.512Z,2.90
2019-06-10T10:37:42.333Z,2.90
2019-06-10T10:40:08.708Z,2.53
2019-06-10T10:42:45.003Z,3.03
2019-06-10T10:45:04.634Z,2.90
2019-06-10T10:47:33.527Z,2.67
2019-06-10T10:50:02.553Z,2.80
2019-06-10T10:52:27.434Z,2.50
2019-06-10T10:54:55.811Z,2.80
2019-06-10T10:57:23.417Z,2.63
2019-06-10T10:59:53.946Z,2.93
2019-06-10T11:02:18.590Z,4.20
2019-06-10T11:04:46.267Z,2.50
2019-06-10T11:07:14.249Z,2.33
2019-06-10T11:09:42.425Z,2.63
2019-06-10T11:12:09.736Z,2.47
2019-06-10T11:14:37.360Z,2.30
2019-06-10T11:17:04.959Z,2.30
2019-06-10T11:19:33.064Z,2.30
2019-06-10T11:22:02.776Z,2.40
2019-06-10T11:24:36.489Z,2.60
2019-06-10T11:26:56.551Z,2.57
2019-06-10T11:29:22.974Z,2.73
2019-06-10T11:31:53.675Z,2.43
2019-06-10T11:34:19.838Z,2.60
2019-06-10T11:36:46.135Z,2.57
2019-06-10T11:39:13.511Z,2.73
2019-06-10T11:41:42.867Z,2.90
2019-06-10T11:44:08.539Z,2.37
2019-06-10T11:46:36.147Z,2.50
2019-06-10T11:49:04.499Z,2.00
2019-06-10T11:51:32.083Z,3.20
2019-06-10T11:54:00.452Z,2.37
2019-06-10T11:56:28.806Z,2.23
2019-06-10T11:58:58.704Z,2.43
2019-06-10T12:01:23.995Z,2.72
2019-06-10T12:03:54.024Z,2.50
2019-06-10T12:06:19.548Z,2.20
2019-06-10T12:08:47.132Z,2.73
2019-06-10T12:11:14.718Z,2.37
2019-06-10T12:13:43.143Z,2.50
2019-06-10T12:18:38.307Z,2.00
2019-06-10T12:21:05.929Z,2.40
2019-06-10T12:23:33.842Z,2.10
2019-06-10T12:26:04.507Z,2.33
2019-06-10T12:28:29.033Z,2.27
2019-06-10T12:31:01.095Z,2.60
2019-06-10T12:33:25.296Z,2.97
2019-06-10T12:35:54.890Z,2.10
2019-06-10T12:38:19.389Z,2.00
2019-06-10T12:40:47.025Z,2.47
2019-06-10T12:43:14.602Z,2.17
2019-06-10T12:45:43.294Z,2.30
2019-06-10T12:48:09.776Z,2.40
2019-06-10T12:50:38.121Z,2.17
2019-06-10T12:53:07.328Z,2.30
2019-06-10T12:55:42.897Z,2.50
2019-06-10T12:58:04.380Z,2.30
2019-06-10T13:00:28.804Z,3.20
2019-06-10T13:02:57.382Z,2.50
2019-06-10T13:05:23.965Z,2.47
2019-06-10T13:07:51.592Z,2.50
2019-06-10T13:10:20.562Z,2.10
2019-06-10T13:12:48.976Z,1.90
2019-06-10T13:15:15.967Z,2.37
2019-06-10T13:17:44.112Z,2.40
2019-06-10T13:20:13.625Z,1.80
2019-06-10T13:22:38.774Z,1.87
2019-06-10T13:25:06.927Z,2.37
2019-06-10T13:27:33.961Z,2.00
2019-06-10T13:30:02.721Z,2.67
2019-06-10T13:32:29.127Z,2.20
2019-06-10T13:34:57.092Z,2.60
2019-06-10T13:37:24.668Z,2.30
2019-06-10T13:39:53.009Z,2.12
2019-06-10T13:42:22.797Z,2.47
2019-06-10T13:44:48.209Z,2.20
2019-06-10T13:47:15.800Z,2.80
2019-06-10T13:49:43.802Z,2.00
2019-06-10T13:52:16.480Z,2.53
2019-06-10T13:54:39.337Z,2.10
2019-06-10T13:57:09.820Z,2.33
2019-06-10T13:59:36.489Z,2.40
2019-06-10T14:02:06.451Z,2.70
2019-06-10T14:04:33.424Z,2.50
2019-06-10T14:06:59.284Z,2.63
2019-06-10T14:09:26.970Z,2.70
2019-06-10T14:11:54.564Z,2.20
2019-06-10T14:14:22.963Z,2.07
2019-06-10T14:16:49.752Z,2.70
2019-06-10T14:19:18.096Z,2.10
2019-06-10T14:21:45.679Z,2.10
2019-06-10T14:24:16.022Z,2.37
2019-06-10T14:26:44.833Z,2.30
2019-06-10T14:29:09.225Z,2.17
2019-06-10T14:31:43.712Z,2.20
2019-06-10T14:34:05.505Z,2.20
2019-06-10T14:36:32.526Z,2.00
2019-06-10T14:38:58.916Z,2.30
2019-06-10T14:41:27.262Z,2.30
2019-06-10T14:43:54.894Z,2.10
2019-06-10T14:46:23.057Z,2.40
2019-06-10T14:48:50.064Z,1.97
2019-06-10T14:51:17.684Z,2.20
2019-06-10T14:53:45.580Z,2.35
2019-06-10T14:56:17.217Z,2.13
2019-06-10T14:58:42.422Z,2.33
2019-06-10T15:01:10.105Z,1.97
2019-06-10T15:03:37.031Z,2.30
2019-06-10T15:06:04.608Z,2.50
2019-06-10T15:08:32.439Z,2.20
2019-06-10T15:10:59.814Z,2.73
2019-06-10T15:13:27.389Z,2.57
2019-06-10T15:15:55.257Z,2.43
2019-06-10T15:18:23.902Z,2.20
2019-06-10T15:20:53.527Z,2.00
2019-06-10T15:23:20.405Z,2.43
2019-06-10T15:25:52.430Z,2.53
2019-06-10T15:28:15.932Z,2.27
2019-06-10T15:30:43.247Z,2.00
2019-06-10T15:33:11.122Z,2.27
2019-06-10T15:35:37.703Z,2.40
2019-06-10T15:38:05.306Z,2.37
2019-06-10T15:40:33.657Z,2.70
2019-06-10T15:43:01.263Z,2.43
2019-06-10T15:45:28.846Z,3.27
2019-06-10T15:47:56.460Z,3.10
2019-06-10T15:50:27.730Z,3.40
2019-06-10T15:52:55.077Z,2.93
2019-06-10T15:55:49.278Z,3.07
2019-06-10T15:57:51.029Z,3.20
2019-06-10T16:00:22.328Z,3.10
2019-06-10T16:02:46.596Z,3.30
2019-06-10T16:05:15.746Z,3.53
2019-06-10T16:07:43.184Z,3.67
2019-06-10T16:10:12.159Z,3.50
2019-06-10T16:12:39.551Z,3.07
2019-06-10T16:15:07.124Z,3.90
2019-06-10T16:17:35.481Z,3.17
2019-06-10T16:20:03.805Z,2.93
2019-06-10T16:22:30.694Z,3.20
2019-06-10T16:24:58.271Z,2.80
2019-06-10T16:27:43.489Z,3.35
2019-06-10T16:29:54.218Z,3.27
2019-06-10T16:32:23.629Z,3.07
2019-06-10T16:34:52.233Z,3.13
2019-06-10T16:37:19.152Z,2.70
2019-06-10T16:39:46.432Z,3.00
2019-06-10T16:42:14.011Z,2.60
2019-06-10T16:44:42.374Z,3.20
2019-06-10T16:47:12.462Z,3.13
2019-06-10T16:49:38.109Z,3.47
2019-06-10T16:52:05.693Z,3.23
2019-06-10T16:54:33.273Z,2.97
2019-06-10T16:57:03.730Z,2.70
2019-06-10T16:59:30.215Z,2.95
2019-06-10T17:01:57.411Z,2.40
2019-06-10T17:04:27.601Z,2.10
2019-06-10T17:06:53.261Z,3.00
2019-06-10T17:09:23.050Z,1.93
2019-06-10T17:11:48.465Z,2.30
2019-06-10T17:14:16.055Z,2.23
2019-06-10T17:16:44.431Z,2.07
2019-06-10T17:19:14.368Z,2.20
2019-06-10T17:21:42.182Z,2.47
2019-06-10T17:24:08.602Z,2.80
2019-06-10T17:26:38.241Z,2.67
2019-06-10T17:29:03.787Z,2.50
2019-06-10T17:31:34.875Z,2.70
2019-06-10T17:33:58.985Z,2.80
2019-06-10T17:36:29.520Z,2.60
2019-06-10T17:38:54.249Z,2.00
2019-06-10T17:41:25.835Z,2.00
2019-06-10T17:43:49.390Z,1.83
2019-06-10T17:46:17.013Z,2.20
2019-06-10T17:48:44.592Z,2.20
2019-06-10T17:51:12.210Z,1.77
2019-06-10T17:53:39.812Z,2.00
2019-06-10T17:56:07.388Z,1.90
2019-06-10T17:58:50.110Z,1.60
2019-06-10T18:01:02.625Z,1.70
2019-06-10T18:03:31.346Z,1.47
2019-06-10T18:05:58.264Z,2.00
2019-06-10T18:08:26.042Z,2.05
2019-06-10T18:10:53.805Z,1.70
2019-06-10T18:13:22.676Z,1.67
2019-06-10T18:15:49.737Z,2.00
2019-06-10T18:18:17.314Z,1.67
2019-06-10T18:20:44.920Z,1.63
2019-06-10T18:23:13.536Z,1.73
2019-06-10T18:25:43.095Z,1.63
2019-06-10T18:28:08.486Z,1.87
2019-06-10T18:30:37.719Z,1.70
2019-06-10T18:33:03.751Z,1.50
2019-06-10T18:35:34.139Z,1.43
2019-06-10T18:37:58.906Z,2.00
2019-06-10T18:40:27.449Z,1.57
2019-06-10T18:42:54.128Z,1.60
2019-06-10T18:45:22.373Z,1.63
2019-06-10T18:47:49.327Z,1.47
2019-06-10T18:50:16.899Z,2.22
2019-06-10T18:52:44.506Z,1.57
2019-06-10T18:55:12.307Z,1.57
2019-06-10T18:57:42.540Z,1.50
2019-06-10T19:00:13.790Z,1.67
2019-06-10T19:02:36.502Z,1.60
2019-06-10T19:05:03.215Z,1.40
2019-06-10T19:07:33.858Z,1.70
2019-06-10T19:09:59.333Z,1.63
2019-06-10T19:12:26.922Z,1.30
2019-06-10T19:14:54.513Z,1.33
2019-06-10T19:17:23.067Z,1.50
2019-06-10T19:19:53.103Z,1.90
2019-06-10T19:22:18.399Z,1.93
2019-06-10T19:24:45.997Z,1.63
2019-06-10T19:27:13.613Z,1.67
2019-06-10T19:29:50.395Z,1.83
2019-06-10T19:32:08.784Z,1.30
2019-06-10T19:34:37.475Z,1.90
2019-06-10T19:37:03.999Z,1.90
2019-06-10T19:39:35.579Z,2.00
2019-06-10T19:41:59.247Z,2.03
2019-06-10T19:44:26.831Z,1.90
2019-06-10T19:46:54.421Z,2.00
2019-06-10T19:49:22.048Z,2.07
2019-06-10T19:51:49.606Z,2.10
2019-06-10T19:54:17.231Z,2.07
2019-06-10T19:56:44.813Z,2.03
2019-06-10T19:59:13.166Z,2.27
2019-06-10T20:01:45.787Z,2.80
2019-06-10T20:04:08.376Z,2.70
2019-06-10T20:06:35.953Z,2.10
2019-06-10T20:09:03.580Z,2.23
2019-06-10T20:11:32.204Z,2.30
2019-06-10T20:13:58.736Z,2.33
2019-06-10T20:16:26.342Z,2.40
2019-06-10T20:18:53.956Z,2.17
2019-06-10T20:21:22.698Z,2.70
2019-06-10T20:23:49.911Z,3.47
2019-06-10T20:26:18.259Z,2.80
2019-06-10T20:28:48.719Z,2.50
2019-06-10T20:31:13.461Z,3.17
2019-06-10T20:33:43.067Z,3.00
2019-06-10T20:36:15.918Z,2.73
2019-06-10T20:38:37.743Z,3.07
2019-06-10T20:41:03.845Z,3.00
2019-06-10T20:43:32.816Z,3.40
2019-06-10T20:45:59.046Z,3.10
2019-06-10T20:48:26.640Z,4.03
2019-06-10T20:50:54.266Z,3.63
2019-06-10T20:53:21.857Z,4.20
2019-06-10T20:55:54.466Z,3.93
2019-06-10T20:58:17.052Z,4.27
2019-06-10T21:00:49.985Z,4.10
2019-06-10T21:03:12.245Z,3.27
2019-06-10T21:05:39.860Z,3.93
2019-06-10T21:08:08.016Z,3.93
2019-06-10T21:10:35.599Z,4.47
2019-06-10T21:13:03.219Z,3.93
2019-06-10T21:15:33.203Z,4.65
2019-06-10T21:17:58.386Z,4.55
2019-06-10T21:20:26.010Z,4.10
2019-06-10T21:22:54.423Z,4.20
2019-06-10T21:25:22.931Z,3.80
2019-06-10T21:27:52.408Z,3.80
2019-06-10T21:30:17.196Z,3.93
2019-06-10T21:32:45.744Z,4.23
2019-06-10T21:35:12.384Z,3.90
2019-06-10T21:37:42.534Z,3.90
2019-06-10T21:40:07.547Z,3.97
2019-06-10T21:42:35.150Z,3.70
2019-06-10T21:45:03.617Z,3.70
2019-06-10T21:47:32.377Z,4.40
2019-06-10T21:49:58.703Z,4.07
2019-06-10T21:52:26.288Z,3.57
2019-06-10T21:54:53.933Z,4.13
2019-06-10T21:57:22.079Z,4.97
2019-06-10T21:59:49.094Z,5.10
2019-06-10T22:02:17.470Z,4.53
2019-06-10T22:04:46.660Z,4.00
2019-06-10T22:07:13.402Z,4.27
2019-06-10T22:09:42.537Z,3.97
2019-06-10T22:12:08.602Z,3.90
2019-06-10T22:14:36.581Z,3.90
2019-06-10T22:17:04.157Z,4.10
2019-06-10T22:19:32.281Z,4.37
2019-06-10T22:22:02.588Z,3.97
2019-06-10T22:24:28.468Z,3.97
2019-06-10T22:26:56.042Z,3.83
2019-06-10T22:29:23.653Z,5.10
2019-06-10T22:31:53.622Z,4.17
2019-06-10T22:34:18.806Z,3.60
2019-06-10T22:36:47.539Z,4.10
2019-06-10T22:39:14.746Z,4.37
2019-06-10T22:41:42.688Z,4.40
2019-06-10T22:44:12.507Z,4.20
2019-06-10T22:46:38.046Z,4.27
2019-06-10T22:49:05.646Z,4.17
2019-06-10T22:51:33.999Z,3.93
2019-06-10T22:54:03.618Z,4.57
2019-06-10T22:56:29.206Z,5.47
2019-06-10T22:58:57.327Z,4.93
2019-06-10T23:01:34.343Z,5.53
2019-06-10T23:03:52.195Z,5.17
2019-06-10T23:06:19.602Z,4.17
2019-06-10T23:08:48.209Z,4.63
2019-06-10T23:11:15.571Z,4.10
2019-06-10T23:13:43.187Z,5.35
2019-06-10T23:16:12.887Z,4.73
2019-06-10T23:18:39.106Z,4.20
2019-06-10T23:21:06.728Z,4.97
2019-06-10T23:23:34.314Z,5.25
2019-06-10T23:26:02.898Z,4.13
2019-06-10T23:28:32.567Z,4.20
2019-06-10T23:31:00.150Z,4.27
2019-06-10T23:33:26.227Z,5.15
2019-06-10T23:35:54.512Z,4.80
2019-06-10T23:38:23.535Z,4.20
2019-06-10T23:40:50.627Z,4.30
2019-06-10T23:43:17.734Z,4.27
2019-06-10T23:45:45.639Z,4.40
2019-06-10T23:48:13.548Z,4.40
2019-06-10T23:50:43.205Z,4.70
2019-06-10T23:53:08.424Z,4.90
2019-06-10T23:55:36.003Z,4.33
2019-06-10T23:58:03.613Z,4.47
